Kota Waris — S6RJ — position and weather

sailwx.info

Track history (hours):
 
Tides and Currents Weather Stations Pressure Air Temp Water Temp Dewpoint Dewpoint Depression Visibility Wind Speed Wind Dir Waves Ship Positions

Kota Waris

Last reported at 2016-Feb-12 07:10 UTC. Time now 2016-Feb-13 12:51 UTC.
Position N 01°15' E 104°05'.

Length 185 m; draft 9.3 m.

Type: Cargo ship. MMSI: 564482000.

Date/timePositionNaut miles runAvg speedWind from/ knotsBaromVisibWave heightAir tempDewpointWater temp
2016-Feb-12 07:10N 01°15' E 104°05'1016.0
2016-Feb-12 06:33N 01°13' E 103°55'9 8.7
2016-Feb-12 05:33N 01°14' E 103°47'3 3.2
2016-Feb-12 04:33N 01°17' E 103°46'0 0.0
2016-Feb-12 03:32N 01°17' E 103°46'0 0.0
2016-Feb-12 02:33N 01°17' E 103°46'0 0.0
2016-Feb-12 01:33N 01°17' E 103°46'0 0.0
2016-Feb-12 00:33N 01°17' E 103°46'0 0.0
2016-Feb-11 23:21N 01°17' E 103°46'0 0.0
2016-Feb-11 22:33N 01°17' E 103°46'0 0.0
2016-Feb-11 21:33N 01°17' E 103°46'0 0.0
2016-Feb-11 20:33N 01°17' E 103°46'0 0.0
2016-Feb-11 19:33N 01°17' E 103°46'0 0.0
2016-Feb-11 18:33N 01°17' E 103°46'0 0.0
2016-Feb-11 17:33N 01°17' E 103°46'0 0.0
2016-Feb-11 16:33N 01°17' E 103°46'0 0.0
2016-Feb-11 15:31N 01°17' E 103°46'0 0.0
2016-Feb-11 14:33N 01°17' E 103°46'0 0.0
2016-Feb-11 13:33N 01°17' E 103°46'0 0.0
2016-Feb-11 12:33N 01°17' E 103°46'0 0.0
2016-Feb-11 11:32N 01°17' E 103°46'0 0.0
2016-Feb-11 10:33N 01°17' E 103°46'0 0.0
2016-Feb-11 09:33N 01°17' E 103°46'0 0.0
2016-Feb-11 08:33N 01°17' E 103°46'0 0.0
2016-Feb-11 07:32N 01°17' E 103°46'0 0.2
2016-Feb-11 06:33N 01°17' E 103°46'6 5.7
2016-Feb-11 05:33N 01°12' E 103°49'6 6.0
2016-Feb-11 04:31N 01°16' E 103°54'0 0.0
2016-Feb-11 03:33N 01°16' E 103°54'0 0.0
2016-Feb-11 02:33N 01°16' E 103°54'0 0.0
2016-Feb-11 01:33N 01°16' E 103°54'0 0.0
2016-Feb-11 00:33N 01°16' E 103°54'0 0.0
2016-Feb-10 23:33N 01°16' E 103°54'0 0.0
2016-Feb-10 22:33N 01°16' E 103°54'0 0.0
2016-Feb-10 21:33N 01°16' E 103°54'0 0.0
2016-Feb-10 20:33N 01°16' E 103°54'0 0.0
2016-Feb-10 19:33N 01°16' E 103°54'0 0.0
2016-Feb-10 18:33N 01°16' E 103°54'0 0.0
2016-Feb-10 17:33N 01°16' E 103°54'0 0.0
2016-Feb-10 16:33N 01°16' E 103°54'0 0.0
2016-Feb-10 15:33N 01°16' E 103°54'0 0.4
2016-Feb-10 14:33N 01°16' E 103°54'4 4.4
2016-Feb-10 13:33N 01°15' E 103°58'7 7.4
2016-Feb-10 12:33N 01°16' E 104°05'  
2016-Feb-07 09:33N 16°07' E 108°13'0 0.3
2016-Feb-07 08:31N 16°07' E 108°13'0 0.0
2016-Feb-07 07:33N 16°07' E 108°13'3 2.9
2016-Feb-07 06:33N 16°08' E 108°10'1 0.4
2016-Feb-07 05:06N 16°09' E 108°10'0 0.1
2016-Feb-07 04:30N 16°09' E 108°10'0 0.0
2016-Feb-07 02:06N 16°09' E 108°10'0 0.0
2016-Feb-07 01:24N 16°09' E 108°10'0 0.0
2016-Feb-07 00:12N 16°09' E 108°10'0 0.0
2016-Feb-06 22:30N 16°09' E 108°10'0 0.1
2016-Feb-06 21:30N 16°08' E 108°10'0 0.0
2016-Feb-06 19:30N 16°08' E 108°10'0 0.0
2016-Feb-06 18:30N 16°08' E 108°10'0 0.1
2016-Feb-06 17:30N 16°08' E 108°10'0 0.0
2016-Feb-06 16:30N 16°08' E 108°10'0 0.0
2016-Feb-06 13:30N 16°08' E 108°10'0 0.0
2016-Feb-06 12:24N 16°08' E 108°10'0 0.1
2016-Feb-06 11:30N 16°08' E 108°10'0 0.0
2016-Feb-06 10:30N 16°08' E 108°10'0 0.1
2016-Feb-06 09:33N 16°08' E 108°10'0 0.0
2016-Feb-06 08:33N 16°08' E 108°10'0 0.0
2016-Feb-06 07:33N 16°08' E 108°10'0 0.1
2016-Feb-06 06:33N 16°08' E 108°10'0 0.0
2016-Feb-06 05:34N 16°08' E 108°10'0 0.0
2016-Feb-06 04:33N 16°08' E 108°10'0 0.0
2016-Feb-06 03:33N 16°08' E 108°10'0 0.1
2016-Feb-06 02:33N 16°09' E 108°10'12 8.1
2016-Feb-06 01:03N 16°17' E 108°19'  
Track history (hours):
 
Tides and Currents Weather Stations Pressure Air Temp Water Temp Dewpoint Dewpoint Depression Visibility Wind Speed Wind Dir Waves Ship Positions

Kota Waris

Last reported at 2016-Feb-12 07:10 UTC. Time now 2016-Feb-13 12:51 UTC.
Position N 01°15' E 104°05'.

Length 185 m; draft 9.3 m.

Type: Cargo ship. MMSI: 564482000.

Date/timePositionNaut miles runAvg speedWind from/ knotsBaromVisibWave heightAir tempDewpointWater temp
2016-Feb-12 07:10N 01°15' E 104°05'1016.0
2016-Feb-12 06:33N 01°13' E 103°55'9 8.7
2016-Feb-12 05:33N 01°14' E 103°47'3 3.2
2016-Feb-12 04:33N 01°17' E 103°46'0 0.0
2016-Feb-12 03:32N 01°17' E 103°46'0 0.0
2016-Feb-12 02:33N 01°17' E 103°46'0 0.0
2016-Feb-12 01:33N 01°17' E 103°46'0 0.0
2016-Feb-12 00:33N 01°17' E 103°46'0 0.0
2016-Feb-11 23:21N 01°17' E 103°46'0 0.0
2016-Feb-11 22:33N 01°17' E 103°46'0 0.0
2016-Feb-11 21:33N 01°17' E 103°46'0 0.0
2016-Feb-11 20:33N 01°17' E 103°46'0 0.0
2016-Feb-11 19:33N 01°17' E 103°46'0 0.0
2016-Feb-11 18:33N 01°17' E 103°46'0 0.0
2016-Feb-11 17:33N 01°17' E 103°46'0 0.0
2016-Feb-11 16:33N 01°17' E 103°46'0 0.0
2016-Feb-11 15:31N 01°17' E 103°46'0 0.0
2016-Feb-11 14:33N 01°17' E 103°46'0 0.0
2016-Feb-11 13:33N 01°17' E 103°46'0 0.0
2016-Feb-11 12:33N 01°17' E 103°46'0 0.0
2016-Feb-11 11:32N 01°17' E 103°46'0 0.0
2016-Feb-11 10:33N 01°17' E 103°46'0 0.0
2016-Feb-11 09:33N 01°17' E 103°46'0 0.0
2016-Feb-11 08:33N 01°17' E 103°46'0 0.0
2016-Feb-11 07:32N 01°17' E 103°46'0 0.2
2016-Feb-11 06:33N 01°17' E 103°46'6 5.7
2016-Feb-11 05:33N 01°12' E 103°49'6 6.0
2016-Feb-11 04:31N 01°16' E 103°54'0 0.0
2016-Feb-11 03:33N 01°16' E 103°54'0 0.0
2016-Feb-11 02:33N 01°16' E 103°54'0 0.0
2016-Feb-11 01:33N 01°16' E 103°54'0 0.0
2016-Feb-11 00:33N 01°16' E 103°54'0 0.0
2016-Feb-10 23:33N 01°16' E 103°54'0 0.0
2016-Feb-10 22:33N 01°16' E 103°54'0 0.0
2016-Feb-10 21:33N 01°16' E 103°54'0 0.0
2016-Feb-10 20:33N 01°16' E 103°54'0 0.0
2016-Feb-10 19:33N 01°16' E 103°54'0 0.0
2016-Feb-10 18:33N 01°16' E 103°54'0 0.0
2016-Feb-10 17:33N 01°16' E 103°54'0 0.0
2016-Feb-10 16:33N 01°16' E 103°54'0 0.0
2016-Feb-10 15:33N 01°16' E 103°54'0 0.4
2016-Feb-10 14:33N 01°16' E 103°54'4 4.4
2016-Feb-10 13:33N 01°15' E 103°58'7 7.4
2016-Feb-10 12:33N 01°16' E 104°05'  
2016-Feb-07 09:33N 16°07' E 108°13'0 0.3
2016-Feb-07 08:31N 16°07' E 108°13'0 0.0
2016-Feb-07 07:33N 16°07' E 108°13'3 2.9
2016-Feb-07 06:33N 16°08' E 108°10'1 0.4
2016-Feb-07 05:06N 16°09' E 108°10'0 0.1
2016-Feb-07 04:30N 16°09' E 108°10'0 0.0
2016-Feb-07 02:06N 16°09' E 108°10'0 0.0
2016-Feb-07 01:24N 16°09' E 108°10'0 0.0
2016-Feb-07 00:12N 16°09' E 108°10'0 0.0
2016-Feb-06 22:30N 16°09' E 108°10'0 0.1
2016-Feb-06 21:30N 16°08' E 108°10'0 0.0
2016-Feb-06 19:30N 16°08' E 108°10'0 0.0
2016-Feb-06 18:30N 16°08' E 108°10'0 0.1
2016-Feb-06 17:30N 16°08' E 108°10'0 0.0
2016-Feb-06 16:30N 16°08' E 108°10'0 0.0
2016-Feb-06 13:30N 16°08' E 108°10'0 0.0
2016-Feb-06 12:24N 16°08' E 108°10'0 0.1
2016-Feb-06 11:30N 16°08' E 108°10'0 0.0
2016-Feb-06 10:30N 16°08' E 108°10'0 0.1
2016-Feb-06 09:33N 16°08' E 108°10'0 0.0
2016-Feb-06 08:33N 16°08' E 108°10'0 0.0
2016-Feb-06 07:33N 16°08' E 108°10'0 0.1
2016-Feb-06 06:33N 16°08' E 108°10'0 0.0
2016-Feb-06 05:34N 16°08' E 108°10'0 0.0
2016-Feb-06 04:33N 16°08' E 108°10'0 0.0
2016-Feb-06 03:33N 16°08' E 108°10'0 0.1
2016-Feb-06 02:33N 16°09' E 108°10'12 8.1
2016-Feb-06 01:03N 16°17' E 108°19'  

Dump ship's entire track history